createdAt,value
2018-09-03T00:01:55.089Z,20.27
2018-09-03T00:04:24.316Z,21.23
2018-09-03T00:06:53.566Z,19.53
2018-09-03T00:09:22.761Z,18.93
2018-09-03T00:11:52.825Z,23.57
2018-09-03T00:14:22.124Z,20.17
2018-09-03T00:16:51.390Z,22.30
2018-09-03T00:19:20.639Z,19.23
2018-09-03T00:21:49.834Z,20.07
2018-09-03T00:24:19.059Z,22.27
2018-09-03T00:26:48.298Z,19.97
2018-09-03T00:29:17.617Z,18.47
2018-09-03T00:31:51.823Z,24.27
2018-09-03T00:34:26.183Z,24.60
2018-09-03T00:37:00.575Z,23.03
2018-09-03T00:39:34.925Z,18.87
2018-09-03T00:42:09.196Z,22.23
2018-09-03T00:44:43.469Z,18.37
2018-09-03T00:47:13.002Z,19.93
2018-09-03T00:49:42.332Z,18.43
2018-09-03T00:52:11.566Z,20.27
2018-09-03T00:54:40.964Z,19.10
2018-09-03T00:57:10.211Z,19.27
2018-09-03T00:59:39.476Z,17.77
2018-09-03T01:02:08.808Z,20.30
2018-09-03T01:04:38.034Z,22.60
2018-09-03T01:07:07.396Z,19.43
2018-09-03T01:09:36.639Z,16.50
2018-09-03T01:12:05.896Z,19.47
2018-09-03T01:14:35.138Z,17.97
2018-09-03T01:17:04.448Z,20.30
2018-09-03T01:19:33.651Z,21.40
2018-09-03T01:22:02.846Z,19.30
2018-09-03T01:24:32.068Z,20.30
2018-09-03T01:27:01.272Z,22.07
2018-09-03T01:29:30.536Z,21.27
2018-09-03T01:31:59.762Z,22.10
2018-09-03T01:34:29.014Z,21.03
2018-09-03T01:36:58.204Z,20.23
2018-09-03T01:39:27.447Z,19.53
2018-09-03T01:41:56.747Z,21.00
2018-09-03T01:44:25.975Z,22.10
2018-09-03T01:46:55.206Z,20.63
2018-09-03T01:49:24.394Z,21.10
2018-09-03T01:51:54.063Z,20.67
2018-09-03T01:54:24.084Z,21.53
2018-09-03T01:56:53.413Z,22.50
2018-09-03T01:59:22.675Z,20.73
2018-09-03T02:01:51.929Z,21.33
2018-09-03T02:04:21.181Z,22.37
2018-09-03T02:06:50.404Z,22.33
2018-09-03T02:09:19.683Z,20.03
2018-09-03T02:11:48.940Z,21.83
2018-09-03T02:14:18.124Z,19.87
2018-09-03T02:16:47.395Z,21.47
2018-09-03T02:19:16.575Z,20.50
2018-09-03T02:21:45.814Z,20.33
2018-09-03T02:24:15.083Z,23.97
2018-09-03T02:26:44.422Z,19.93
2018-09-03T02:29:13.678Z,19.70
2018-09-03T02:31:42.921Z,20.87
2018-09-03T02:34:12.122Z,22.20
2018-09-03T02:36:41.422Z,20.60
2018-09-03T02:39:10.641Z,20.90
2018-09-03T02:41:39.816Z,18.40
2018-09-03T02:44:09.038Z,22.70
2018-09-03T02:46:38.284Z,22.57
2018-09-03T02:49:07.882Z,20.90
2018-09-03T02:51:37.107Z,20.90
2018-09-03T02:54:06.465Z,25.70
2018-09-03T02:56:35.776Z,24.70
2018-09-03T02:59:05.053Z,21.17
2018-09-03T03:01:34.304Z,19.53
2018-09-03T03:04:03.546Z,19.67
2018-09-03T03:06:32.771Z,18.77
2018-09-03T03:09:02.055Z,20.80
2018-09-03T03:11:32.211Z,19.10
2018-09-03T03:14:01.420Z,19.20
2018-09-03T03:16:30.788Z,20.20
2018-09-03T03:19:00.025Z,18.67
2018-09-03T03:21:29.287Z,21.27
2018-09-03T03:23:58.535Z,21.60
2018-09-03T03:26:28.407Z,20.40
2018-09-03T03:28:57.655Z,18.90
2018-09-03T03:31:26.858Z,17.97
2018-09-03T03:33:56.141Z,20.93
2018-09-03T03:36:25.391Z,19.33
2018-09-03T03:38:54.635Z,19.47
2018-09-03T03:41:23.856Z,21.23
2018-09-03T03:43:53.194Z,17.93
2018-09-03T03:46:22.429Z,19.83
2018-09-03T03:48:51.909Z,16.43
2018-09-03T03:51:21.145Z,20.63
2018-09-03T03:53:50.397Z,18.07
2018-09-03T03:56:19.650Z,22.00
2018-09-03T03:58:48.969Z,18.33
2018-09-03T04:01:18.822Z,19.53
2018-09-03T04:03:48.016Z,19.80
2018-09-03T04:06:17.308Z,17.77
2018-09-03T04:08:46.563Z,20.90
2018-09-03T04:11:15.775Z,18.50
2018-09-03T04:13:45.048Z,21.53
2018-09-03T04:16:14.270Z,19.63
2018-09-03T04:18:43.495Z,18.57
2018-09-03T04:21:12.744Z,17.67
2018-09-03T04:23:41.965Z,17.90
2018-09-03T04:26:11.185Z,18.57
2018-09-03T04:28:40.412Z,17.20
2018-09-03T04:31:09.694Z,19.50
2018-09-03T04:33:38.918Z,18.40
2018-09-03T04:36:08.243Z,20.00
2018-09-03T04:38:38.092Z,18.23
2018-09-03T04:41:07.332Z,26.20
2018-09-03T04:43:36.744Z,19.00
2018-09-03T04:46:06.094Z,17.90
2018-09-03T04:48:35.315Z,23.17
2018-09-03T04:51:04.583Z,26.27
2018-09-03T04:53:33.802Z,35.63
2018-09-03T04:56:03.058Z,35.17
2018-09-03T04:58:32.245Z,34.33
2018-09-03T05:01:01.456Z,36.03
2018-09-03T05:03:30.751Z,35.97
2018-09-03T05:06:00.067Z,36.50
2018-09-03T05:08:29.309Z,33.43
2018-09-03T05:10:58.594Z,32.60
2018-09-03T05:13:27.891Z,34.90
2018-09-03T05:15:57.120Z,35.30
2018-09-03T05:18:26.448Z,31.67
2018-09-03T05:20:55.779Z,33.60
2018-09-03T05:23:25.066Z,30.87
2018-09-03T05:25:54.341Z,35.00
2018-09-03T05:28:23.586Z,30.80
2018-09-03T05:30:52.878Z,33.93
2018-09-03T05:33:22.263Z,38.50
2018-09-03T05:35:51.489Z,34.00
2018-09-03T05:38:20.804Z,34.50
2018-09-03T05:40:49.991Z,33.17
2018-09-03T05:43:19.277Z,31.23
2018-09-03T05:45:48.484Z,31.03
2018-09-03T05:48:17.717Z,32.40
2018-09-03T05:50:46.952Z,30.53
2018-09-03T05:53:18.352Z,31.40
2018-09-03T05:55:47.650Z,31.73
2018-09-03T05:58:16.895Z,29.80
2018-09-03T06:00:46.358Z,35.83
2018-09-03T06:03:15.994Z,32.77
2018-09-03T06:05:45.214Z,30.73
2018-09-03T06:08:15.084Z,33.37
2018-09-03T06:10:44.983Z,30.73
2018-09-03T06:13:15.115Z,31.47
2018-09-03T06:15:47.087Z,32.43
2018-09-03T06:18:19.337Z,31.60
2018-09-03T06:20:50.220Z,34.97
2018-09-03T06:23:24.625Z,31.80
2018-09-03T06:25:59.036Z,33.13
2018-09-03T06:28:32.239Z,29.47
2018-09-03T06:31:01.745Z,32.13
2018-09-03T06:33:32.463Z,32.00
2018-09-03T06:36:02.313Z,31.27
2018-09-03T06:38:31.842Z,29.03
2018-09-03T06:41:01.726Z,30.40
2018-09-03T06:43:32.051Z,28.47
2018-09-03T06:46:02.208Z,28.27
2018-09-03T06:48:32.112Z,28.53
2018-09-03T06:51:01.600Z,28.30
2018-09-03T06:53:31.242Z,28.10
2018-09-03T06:56:00.654Z,26.73
2018-09-03T06:58:29.868Z,27.73
2018-09-03T07:01:00.735Z,28.63
2018-09-03T07:03:29.901Z,29.03
2018-09-03T07:05:59.202Z,26.60
2018-09-03T07:08:29.252Z,26.17
2018-09-03T07:10:58.832Z,26.10
2018-09-03T07:13:30.498Z,22.57
2018-09-03T07:16:02.381Z,22.83
2018-09-03T07:18:35.073Z,22.67
2018-09-03T07:21:06.504Z,21.80
2018-09-03T07:23:38.202Z,18.83
2018-09-03T07:26:08.832Z,18.67
2018-09-03T07:28:38.517Z,17.53
2018-09-03T07:31:07.842Z,19.73
2018-09-03T07:33:37.353Z,15.97
2018-09-03T07:36:06.983Z,20.93
2018-09-03T07:38:36.442Z,18.77
2018-09-03T07:41:12.057Z,17.40
2018-09-03T07:43:43.856Z,16.07
2018-09-03T07:46:13.105Z,17.33
2018-09-03T07:48:42.354Z,17.33
2018-09-03T07:51:11.681Z,17.57
2018-09-03T07:53:41.145Z,13.90
2018-09-03T07:56:10.411Z,16.63
2018-09-03T07:58:39.781Z,15.57
2018-09-03T08:01:09.036Z,17.77
2018-09-03T08:03:38.276Z,15.10
2018-09-03T08:06:07.511Z,14.67
2018-09-03T08:08:36.776Z,13.40
2018-09-03T08:11:06.262Z,16.07
2018-09-03T08:13:39.724Z,17.30
2018-09-03T08:16:12.220Z,17.57
2018-09-03T08:18:42.138Z,14.67
2018-09-03T08:21:11.463Z,14.83
2018-09-03T08:23:40.718Z,15.87
2018-09-03T08:26:10.915Z,15.60
2018-09-03T08:28:40.147Z,17.67
2018-09-03T08:31:09.467Z,18.90
2018-09-03T08:33:38.663Z,18.50
2018-09-03T08:36:07.898Z,18.00
2018-09-03T08:38:37.069Z,18.53
2018-09-03T08:41:06.360Z,16.33
2018-09-03T08:43:35.540Z,19.10
2018-09-03T08:46:05.406Z,17.73
2018-09-03T08:48:34.582Z,16.27
2018-09-03T08:51:03.811Z,14.93
2018-09-03T08:53:33.009Z,15.27
2018-09-03T08:56:03.200Z,15.40
2018-09-03T08:58:32.527Z,13.67
2018-09-03T09:01:01.777Z,11.90
2018-09-03T09:03:36.244Z,12.17
2018-09-03T09:06:05.494Z,12.93
2018-09-03T09:08:34.777Z,12.37
2018-09-03T09:11:04.064Z,12.47
2018-09-03T09:13:33.274Z,12.17
2018-09-03T09:16:02.502Z,10.57
2018-09-03T09:18:31.760Z,10.70
2018-09-03T09:21:01.000Z,12.47
2018-09-03T09:23:30.300Z,10.93
2018-09-03T09:25:59.570Z,9.80
2018-09-03T09:28:28.804Z,8.57
2018-09-03T09:30:58.109Z,9.90
2018-09-03T09:33:27.578Z,10.67
2018-09-03T09:35:56.955Z,10.47
2018-09-03T09:38:26.328Z,10.70
2018-09-03T09:40:55.576Z,9.97
2018-09-03T09:43:24.838Z,11.10
2018-09-03T09:45:54.079Z,10.37
2018-09-03T09:48:23.318Z,10.70
2018-09-03T09:50:52.538Z,8.63
2018-09-03T09:53:21.837Z,8.67
2018-09-03T09:55:51.032Z,9.20
2018-09-03T09:58:20.279Z,8.07
2018-09-03T10:00:54.618Z,8.13
2018-09-03T10:03:23.907Z,9.33
2018-09-03T10:05:53.242Z,10.40
2018-09-03T10:08:22.459Z,8.70
2018-09-03T10:10:51.754Z,6.70
2018-09-03T10:13:20.971Z,8.03
2018-09-03T10:15:52.491Z,8.43
2018-09-03T10:18:21.691Z,7.10
2018-09-03T10:20:51.077Z,7.17
2018-09-03T10:23:20.776Z,5.93
2018-09-03T10:25:50.003Z,5.40
2018-09-03T10:28:19.226Z,6.97
2018-09-03T10:30:48.421Z,7.67
2018-09-03T10:33:17.726Z,7.10
2018-09-03T10:35:46.953Z,6.13
2018-09-03T10:38:16.273Z,6.30
2018-09-03T10:40:45.517Z,6.40
2018-09-03T10:43:15.103Z,5.80
2018-09-03T10:45:48.015Z,6.87
2018-09-03T10:48:18.409Z,6.27
2018-09-03T10:50:47.724Z,5.17
2018-09-03T10:53:16.985Z,5.20
2018-09-03T10:55:46.182Z,4.17
2018-09-03T10:58:15.384Z,5.83
2018-09-03T11:00:44.654Z,4.80
2018-09-03T11:03:13.842Z,4.23
2018-09-03T11:05:43.063Z,5.30
2018-09-03T11:08:12.284Z,4.47
2018-09-03T11:10:41.510Z,5.20
2018-09-03T11:13:10.802Z,4.90
2018-09-03T11:15:40.075Z,4.50
2018-09-03T11:18:09.273Z,3.73
2018-09-03T11:20:38.524Z,3.20
2018-09-03T11:23:07.790Z,4.43
2018-09-03T11:25:37.095Z,4.30
2018-09-03T11:28:06.519Z,3.43
2018-09-03T11:30:35.830Z,3.03
2018-09-03T11:33:05.085Z,3.30
2018-09-03T11:35:34.458Z,3.27
2018-09-03T11:38:03.620Z,4.00
2018-09-03T11:40:32.991Z,4.10
2018-09-03T11:43:02.245Z,4.80
2018-09-03T11:45:31.551Z,3.70
2018-09-03T11:48:00.830Z,3.20
2018-09-03T11:50:30.026Z,3.57
2018-09-03T11:52:59.230Z,3.50
2018-09-03T11:55:28.439Z,3.00
2018-09-03T11:57:57.764Z,2.73
2018-09-03T12:00:28.829Z,4.00
2018-09-03T12:02:58.466Z,4.07
2018-09-03T12:05:28.444Z,3.93
2018-09-03T12:07:57.771Z,3.60
2018-09-03T12:10:27.105Z,3.90
2018-09-03T12:12:56.396Z,3.80
2018-09-03T12:15:33.517Z,3.60
2018-09-03T12:18:04.222Z,4.00
2018-09-03T12:20:33.650Z,4.10
2018-09-03T12:23:03.023Z,4.00
2018-09-03T12:25:32.298Z,3.53
2018-09-03T12:28:01.543Z,3.60
2018-09-03T12:30:30.724Z,3.70
2018-09-03T12:33:00.146Z,4.10
2018-09-03T12:35:29.358Z,3.47
2018-09-03T12:37:58.593Z,4.50
2018-09-03T12:40:27.899Z,3.43
2018-09-03T12:42:57.205Z,3.50
2018-09-03T12:45:31.684Z,4.00
2018-09-03T12:48:00.968Z,3.60
2018-09-03T12:50:30.138Z,4.20
2018-09-03T12:52:59.374Z,3.40
2018-09-03T12:55:28.704Z,3.63
2018-09-03T12:57:57.951Z,3.60
2018-09-03T13:00:27.318Z,3.70
2018-09-03T13:02:56.715Z,3.53
2018-09-03T13:05:25.959Z,4.10
2018-09-03T13:07:55.227Z,3.57
2018-09-03T13:10:25.432Z,3.03
2018-09-03T13:12:54.635Z,4.27
2018-09-03T13:15:24.109Z,4.40
2018-09-03T13:17:53.432Z,3.20
2018-09-03T13:20:22.602Z,3.47
2018-09-03T13:22:51.914Z,3.40
2018-09-03T13:25:21.449Z,4.70
2018-09-03T13:27:50.662Z,3.73
2018-09-03T13:30:19.970Z,3.80
2018-09-03T13:32:49.161Z,3.80
2018-09-03T13:35:18.516Z,3.77
2018-09-03T13:37:47.860Z,3.60
2018-09-03T13:40:17.108Z,4.10
2018-09-03T13:42:46.328Z,3.70
2018-09-03T13:45:15.580Z,4.30
2018-09-03T13:47:44.807Z,4.20
2018-09-03T13:50:14.022Z,3.83
2018-09-03T13:52:43.876Z,3.60
2018-09-03T13:55:13.325Z,3.57
2018-09-03T13:57:42.668Z,3.80
2018-09-03T14:00:12.916Z,4.80
2018-09-03T14:02:42.422Z,3.30
2018-09-03T14:05:11.738Z,4.07
2018-09-03T14:07:41.820Z,4.13
2018-09-03T14:10:11.390Z,4.33
2018-09-03T14:12:40.706Z,4.10
2018-09-03T14:15:10.136Z,3.70
2018-09-03T14:17:39.500Z,4.03
2018-09-03T14:20:08.887Z,2.80
2018-09-03T14:22:38.164Z,3.63
2018-09-03T14:25:07.498Z,3.57
2018-09-03T14:27:36.804Z,4.00
2018-09-03T14:30:06.441Z,4.10
2018-09-03T14:32:35.752Z,3.80
2018-09-03T14:35:05.275Z,3.50
2018-09-03T14:37:34.672Z,3.70
2018-09-03T14:40:04.175Z,4.23
2018-09-03T14:42:33.641Z,4.03
2018-09-03T14:45:03.032Z,4.53
2018-09-03T14:47:32.288Z,3.30
2018-09-03T14:50:01.688Z,3.40
2018-09-03T14:52:31.012Z,3.47
2018-09-03T14:55:00.396Z,3.60
2018-09-03T14:57:29.701Z,3.97
2018-09-03T14:59:59.108Z,3.30
2018-09-03T15:02:28.393Z,3.30
2018-09-03T15:04:57.611Z,4.13
2018-09-03T15:07:26.834Z,3.63
2018-09-03T15:09:56.146Z,3.83
2018-09-03T15:12:25.417Z,3.83
2018-09-03T15:14:54.610Z,3.63
2018-09-03T15:17:23.996Z,3.50
2018-09-03T15:19:53.551Z,3.27
2018-09-03T15:22:23.012Z,3.57
2018-09-03T15:24:52.312Z,2.90
2018-09-03T15:27:21.583Z,4.60
2018-09-03T15:29:51.021Z,5.17
2018-09-03T15:32:20.358Z,4.17
2018-09-03T15:34:49.663Z,5.00
2018-09-03T15:37:18.955Z,4.00
2018-09-03T15:39:48.329Z,4.17
2018-09-03T15:42:17.680Z,4.13
2018-09-03T15:44:47.100Z,4.33
2018-09-03T15:47:17.186Z,3.70
2018-09-03T15:49:46.474Z,4.60
2018-09-03T15:52:15.815Z,4.60
2018-09-03T15:54:45.575Z,4.40
2018-09-03T15:57:14.765Z,5.33
2018-09-03T15:59:44.137Z,4.47
2018-09-03T16:02:13.365Z,4.30
2018-09-03T16:04:42.689Z,4.20
2018-09-03T16:07:12.134Z,5.10
2018-09-03T16:09:41.329Z,4.67
2018-09-03T16:12:10.622Z,3.77
2018-09-03T16:14:39.904Z,4.70
2018-09-03T16:17:09.288Z,4.40
2018-09-03T16:19:38.596Z,4.53
2018-09-03T16:22:08.158Z,5.33
2018-09-03T16:24:37.546Z,4.60
2018-09-03T16:27:06.946Z,6.00
2018-09-03T16:29:36.211Z,4.37
2018-09-03T16:32:05.777Z,4.80
2018-09-03T16:34:34.954Z,5.43
2018-09-03T16:37:04.251Z,5.03
2018-09-03T16:39:33.511Z,4.03
2018-09-03T16:42:02.764Z,3.93
2018-09-03T16:44:32.201Z,4.10
2018-09-03T16:47:01.624Z,5.10
2018-09-03T16:49:30.948Z,6.60
2018-09-03T16:52:00.214Z,5.30
2018-09-03T16:54:29.456Z,6.40
2018-09-03T16:57:01.706Z,6.43
2018-09-03T16:59:32.689Z,5.83
2018-09-03T17:02:02.091Z,6.20
2018-09-03T17:04:31.557Z,5.90
2018-09-03T17:07:00.902Z,5.10
2018-09-03T17:09:30.356Z,5.70
2018-09-03T17:11:59.666Z,6.53
2018-09-03T17:14:29.053Z,5.50
2018-09-03T17:16:58.384Z,5.60
2018-09-03T17:19:27.949Z,5.47
2018-09-03T17:21:57.263Z,4.93
2018-09-03T17:24:39.050Z,5.43
2018-09-03T17:27:09.466Z,5.37
2018-09-03T17:46:14.373Z,4.80
2018-09-03T17:48:50.063Z,5.30
2018-09-03T17:51:31.889Z,5.40
2018-09-03T17:54:08.227Z,5.07
2018-09-03T17:56:40.547Z,5.03
2018-09-03T17:59:12.859Z,5.33
2018-09-03T18:01:53.147Z,5.60
2018-09-03T18:07:18.733Z,5.50
2018-09-03T18:09:54.426Z,5.70
2018-09-03T18:12:35.732Z,5.03
2018-09-03T18:15:05.971Z,4.97
2018-09-03T18:17:36.873Z,5.50
2018-09-03T18:20:06.745Z,7.17
2018-09-03T18:22:36.487Z,8.30
2018-09-03T18:25:06.278Z,7.63
2018-09-03T18:27:36.067Z,6.90
2018-09-03T18:30:06.027Z,8.73
2018-09-03T18:32:36.028Z,14.07
2018-09-03T18:35:06.262Z,11.17
2018-09-03T18:37:36.040Z,13.80
2018-09-03T18:40:06.451Z,12.10
2018-09-03T18:42:38.085Z,14.17
2018-09-03T18:45:09.353Z,12.90
2018-09-03T18:47:44.916Z,14.63
2018-09-03T18:50:17.729Z,13.00
2018-09-03T18:58:10.087Z,11.23
2018-09-03T19:00:39.778Z,13.20
2018-09-03T19:03:09.622Z,16.60
2018-09-03T19:05:39.399Z,15.97
2018-09-03T19:08:09.074Z,14.47
2018-09-03T19:10:39.674Z,12.30
2018-09-03T19:13:09.420Z,14.40
2018-09-03T19:15:39.147Z,14.40
2018-09-03T19:18:08.892Z,13.10
2018-09-03T19:20:39.332Z,14.77
2018-09-03T19:23:09.301Z,13.27
2018-09-03T19:25:39.060Z,13.53
2018-09-03T19:28:08.826Z,14.37
2018-09-03T19:30:38.511Z,14.27
2018-09-03T19:33:08.352Z,14.97
2018-09-03T19:35:38.005Z,16.97
2018-09-03T19:38:07.885Z,17.87
2018-09-03T19:40:37.849Z,17.47
2018-09-03T19:43:07.426Z,19.50
2018-09-03T19:45:37.005Z,20.90
2018-09-03T19:48:06.881Z,16.67
2018-09-03T19:50:43.888Z,17.47
2018-09-03T19:53:17.292Z,14.70
2018-09-03T19:55:52.515Z,19.27
2018-09-03T20:00:59.624Z,17.33
2018-09-03T20:03:31.981Z,16.80
2018-09-03T20:06:02.754Z,20.33
2018-09-03T20:08:33.448Z,17.70
2018-09-03T20:11:04.155Z,19.37
2018-09-03T20:13:34.096Z,20.60
2018-09-03T20:16:03.915Z,21.07
2018-09-03T20:18:34.665Z,21.80
2018-09-03T20:21:05.437Z,20.57
2018-09-03T20:23:39.223Z,21.03
2018-09-03T20:26:12.904Z,19.43
2018-09-03T20:28:54.176Z,18.33
2018-09-03T20:31:29.401Z,19.40
2018-09-03T20:33:59.639Z,18.67
2018-09-03T20:39:13.286Z,20.47
2018-09-03T20:41:57.387Z,22.60
2018-09-03T20:47:23.293Z,22.40
2018-09-03T20:49:58.576Z,23.73
2018-09-03T20:52:28.532Z,23.13
2018-09-03T20:54:58.896Z,23.07
2018-09-03T20:57:30.086Z,22.03
2018-09-03T21:00:00.054Z,22.40
2018-09-03T21:02:30.823Z,23.00
2018-09-03T21:05:01.029Z,24.43
2018-09-03T21:07:30.683Z,22.40
2018-09-03T21:10:00.407Z,22.40
2018-09-03T21:12:30.191Z,22.57
2018-09-03T21:14:59.850Z,22.67
2018-09-03T21:17:29.700Z,21.07
2018-09-03T21:20:00.279Z,19.20
2018-09-03T21:22:30.077Z,19.50
2018-09-03T21:24:59.756Z,19.27
2018-09-03T21:27:29.696Z,19.57
2018-09-03T21:29:59.025Z,19.87
2018-09-03T21:32:28.404Z,16.77
2018-09-03T21:34:57.811Z,19.03
2018-09-03T21:37:27.171Z,20.17
2018-09-03T21:39:56.537Z,20.50
2018-09-03T21:42:25.848Z,19.07
2018-09-03T21:44:55.226Z,17.60
2018-09-03T21:47:24.606Z,22.53
2018-09-03T21:49:53.918Z,21.67
2018-09-03T21:52:23.327Z,23.47
2018-09-03T21:54:52.684Z,21.57
2018-09-03T21:57:21.953Z,22.73
2018-09-03T21:59:51.267Z,20.03
2018-09-03T22:02:20.571Z,21.50
2018-09-03T22:04:50.832Z,20.90
2018-09-03T22:07:20.150Z,21.00
2018-09-03T22:09:49.476Z,24.63
2018-09-03T22:12:18.813Z,23.20
2018-09-03T22:14:48.122Z,21.93
2018-09-03T22:17:17.436Z,21.30
2018-09-03T22:19:46.699Z,24.57
2018-09-03T22:22:16.025Z,22.97
2018-09-03T22:24:45.357Z,22.23
2018-09-03T22:27:14.640Z,20.87
2018-09-03T22:29:43.933Z,19.00
2018-09-03T22:32:13.233Z,22.00
2018-09-03T22:34:42.471Z,21.20
2018-09-03T22:37:11.867Z,21.70
2018-09-03T22:39:41.611Z,21.13
2018-09-03T22:42:10.808Z,23.53
2018-09-03T22:44:40.245Z,22.90
2018-09-03T22:47:09.727Z,22.27
2018-09-03T22:49:38.959Z,23.83
2018-09-03T22:52:08.319Z,21.23
2018-09-03T22:54:37.555Z,22.50
2018-09-03T22:57:06.739Z,23.67
2018-09-03T22:59:36.195Z,25.30
2018-09-03T23:02:05.419Z,23.70
2018-09-03T23:04:34.710Z,20.43
2018-09-03T23:07:03.919Z,24.30
2018-09-03T23:09:33.168Z,22.83
2018-09-03T23:12:02.783Z,24.17
2018-09-03T23:14:32.024Z,26.03
2018-09-03T23:17:01.231Z,26.80
2018-09-03T23:19:30.515Z,25.30
2018-09-03T23:21:59.751Z,26.73
2018-09-03T23:24:29.054Z,24.07
2018-09-03T23:26:58.326Z,26.20
2018-09-03T23:29:27.551Z,23.83
2018-09-03T23:31:56.804Z,25.33
2018-09-03T23:34:26.005Z,25.80
2018-09-03T23:36:55.241Z,23.17
2018-09-03T23:39:24.477Z,25.07
2018-09-03T23:41:53.703Z,22.63
2018-09-03T23:44:22.940Z,22.93
2018-09-03T23:46:52.153Z,21.97
2018-09-03T23:49:21.448Z,22.53
2018-09-03T23:51:50.702Z,22.50
2018-09-03T23:54:20.052Z,19.60
2018-09-03T23:56:49.352Z,22.13
2018-09-03T23:59:18.570Z,21.80
